EA1HWA
43.12.00N 005.47.40W
IN73CE aprs.fi
zuletzt gehoert:
2022-08-15T00:01:12Z
zuerst gehoert:
2021-01-20T16:30:10Z

APRS IN73CE, 2 Stunde(n), EA1HWA [02:19:04, 0s].
EA1HWA 43.12.00N 005.47.40WIN73CE 0.216km 270°W00:01:12ZMMDVM MMDVM HS Hat 433.4500/433.4500 CC1
EA1JBL 43.12.28N 005.47.42WIN73CE 0.595km 334°NNW00:00:28ZMMDVM DVMega 435.3000/435.3000 CC1
EB1DGC 43.12.60N 005.45.59WIN73CF 2.478km 63°ENE00:00:28ZMMDVM MMDVM HS Hat 433.4500/433.4500 CC1
EA1IMW 43.14.36N 005.46.93WIN73CF 4.393km N00:01:52ZGRUPO RADIO GALENA (GRG) 430.4500/430.4500 CC1(3EA1IMW-1)
EA1RCG 43.09.45N 005.49.78WIN73CD 5.833km 216°SW00:00:47ZGRUPO RADIO GALENA (GRG) 430.4500/430.4500 CC1(3EA1RCG-3)
ED1ZAD 43.07.90N 005.38.52WIN73ED 14.000km 123°ESE00:18:19ZED1ZAD-3 APRS Digi/Igate(3ED1ZAD-3)
EA1HWX 43.19.29N 005.50.96WIN73BH 14.415km 340°NNW00:01:00ZMMDVM DMO 222.3400/222.3400 CC1(3EA1HWX-10)
DMO - UHF 439.7250/431.0000 CC11(2EA1HWX-2)
EA1L 43.20.38N 005.51.13WIN73BI 16.413km 341°NNW00:18:46ZWind 084°/000kn, Böen bis 000kn, Temp 17.78c, Regen 0.0mm, letzte 24h 0.0mm, seit 0h 0.0mm, Baro 1010.9h, Hum: 92%(3EA1L-13)
ea1l@ure.es V=13.4V(2EA1L)
EB1JAJ 43.21.72N 005.51.82WIN73BI 19.041km 341°NNW00:01:56ZMMDVM MMDVM HS Dual Hat 438.0250/431.0250 CC1(3EB1JAJ-2)
LEHU 43.22.63N 005.49.57WIN73CJ 19.948km 351°N00:00:03ZHelipuerto del HUCA: LEAS 142300Z 28007KT 240V320 9999 OVC026 19/16 Q1013 NOSIG=
ED1ZAU 43.23.04N 005.52.75WIN73BJ 21.769km 340°NNW00:02:12ZRD625 438.5000/430.9000 CC1
EA1ABW 43.24.77N 005.47.77WIN73CJ 23.692km 358°N00:00:44ZMMDVM MMDVM HS Hat 439.8250/439.8250 CC1(3EA1ABW-1)
MMDVM MMDVM HS Hat 439.8250/439.8250 CC1(2EA1ABW-2)
LEMR 43.25.83N 005.49.60WIN73CK 25.825km 353°N00:00:04ZAerodromo de la Morgal (123.500MHz): LEAS 142300Z 28007KT 240V320 9999 OVC026 19/16 Q1013 NOSIG=
EA1IPU 43.26.21N 005.46.62WIN73CK 26.362km N00:00:53ZMMDVM MMDVM HS Hat 439.8000/439.8000 CC1(3EA1IPU-1)
LEGM 43.26.15N 005.49.84WIN73CK 26.471km 352°N00:00:03ZHelipuerto de La Morgal (123.500MHz): LEAS 142300Z 28007KT 240V320 9999 OVC026 19/16 Q1013 NOSIG=
ED1ZAS 43.27.52N 005.40.17WIN73DL 30.309km 18°NNE00:02:12ZRD985 438.2250/430.6250 CC1
ED1ZAE 43.27.99N 005.40.54WIN73DL 30.970km 17°NNE00:17:54ZWIDE3-3 ESAS3-3 IN73DL WWW.EA1URG.ORG(3ED1ZAE-3)
EA4ACU 43.29.56N 005.38.92WIN73EL 34.428km 19°NNE00:00:30ZMMDVM MMDVM HS Hat 432.7000/432.7000 CC1(3EA4ACU-1)
ED1ZAY 43.29.47N 005.56.54WIN73AL 34.734km 339°NNW00:02:10ZRD625 438.3000/430.7000 CC1
EB1GEM 43.30.00N 005.36.07WIN73EM 36.609km 24°NNE00:10:35ZWX3in1Plus2.0 U=13.3V,T=??.?C/??.?F(3EB1GEM-3)
EA1FFA 43.31.53N 005.40.64WIN73DM 37.282km 14°NNE00:01:27ZMMDVM MMDVM HS Hat 438.8000/438.8000 CC1(3EA1FFA-1)
EA1DZR 43.31.48N 005.40.00WIN73EM 37.390km 15°NNE00:02:04ZMMDVM DVMega 431.1000/431.1000 CC1(3EA1DZR-1)
MMDVM MMDVM HS Hat 432.1000/432.1000 CC2(2EA1DZR-2)
MMDVM DV ADER 434.3500/434.3500 CC1(2EA1DZR-4)
EA1HJA 43.28.10N 005.30.45WIN73FL 37.444km 37°NE00:10:35ZEA1HJA@URE.ES
IN73FL WX3IN1+ 2.0 - V=13.2V,TX TEMP=36.1C(2EA1HJA-2)
EA1IEJ 43.31.81N 005.40.17WIN73DM 37.940km 14°NNE00:01:55ZMMDVM DMO 222.3400/222.3400 CC1(3EA1IEJ-11)
MMDVM MMDVM HS Hat 438.8500/438.8500 CC6(2EA1IEJ-1)
EB1TK 43.32.22N 005.42.32WIN73DM 38.067km 10°N00:10:58ZWind 233°/002kn, Böen bis 004kn, Temp 19.44c, Regen 0.0mm, letzte 24h 0.3mm, seit 0h 0.3mm, Baro 1015.1h, Hum: 85%(3EB1TK-13)
LEEL 43.32.98N 005.41.71WIN73DN 39.580km 11°N00:00:03ZHelipuerto de El Musel: LEAS 142300Z 28007KT 240V320 9999 OVC026 19/16 Q1013 NOSIG=
EA1AHA 43.32.72N 005.54.38WIN73BN 39.597km 346°NNW00:00:55ZWind 270°/003kn, Böen bis 005kn, Temp 20.00c, Regen 0.0mm, letzte 24h 0.0mm, seit 0h 0.0mm, Baro 1014.1h, Hum: 73%(3EA1AHA-13)
EA1FHR 43.28.72N 005.26.41WIN73GL 41.798km 42°NE00:00:49ZMMDVM MMDVM HS Hat 439.1500/439.1500 CC1
EA1HWD 43.28.96N 005.26.30WIN73GL 42.236km 42°NE00:00:53ZMMDVM MMDVM HS Hat 434.2500/434.2500 CC1
EA1JAY 43.29.33N 005.26.78WIN73GL 42.338km 41°NE00:00:09ZEA1JAY(3EA1JAY-2)
EA4DB 42.52.45N 005.25.06WIN72GU 47.051km 140°SE00:00:38ZMMDVM DMO 144.8625/144.8625 CC1(3EA4DB-9)

aprs.pl 5.0.011w DL3EL © 2006-2021 [4393889]